Map

Track Data

SID SEASON NUMBER BASIN SUBBASIN NAME ISO_TIME NATURE LAT LON WMO_WIND WMO_PRES WMO_AGENCY TRACK_TYPE DIST2LAND LANDFALL IFLAG USA_AGENCY USA_ATCF_ID USA_LAT USA_LON USA_RECORD USA_STATUS USA_WIND USA_PRES USA_SSHS USA_R34_NE USA_R34_SE USA_R34_SW USA_R34_NW USA_R50_NE USA_R50_SE USA_R50_SW USA_R50_NW USA_R64_NE USA_R64_SE USA_R64_SW USA_R64_NW USA_POCI USA_ROCI USA_RMW USA_EYE TOKYO_LAT TOKYO_LON TOKYO_GRADE TOKYO_WIND TOKYO_PRES TOKYO_R50_DIR TOKYO_R50_LONG TOKYO_R50_SHORT TOKYO_R30_DIR TOKYO_R30_LONG TOKYO_R30_SHORT TOKYO_LAND CMA_LAT CMA_LON CMA_CAT CMA_WIND CMA_PRES HKO_LAT HKO_LON HKO_CAT HKO_WIND HKO_PRES NEWDELHI_LAT NEWDELHI_LON NEWDELHI_GRADE NEWDELHI_WIND NEWDELHI_PRES NEWDELHI_CI NEWDELHI_DP NEWDELHI_POCI REUNION_LAT REUNION_LON REUNION_TYPE REUNION_WIND REUNION_PRES REUNION_TNUM REUNION_CI REUNION_RMW REUNION_R34_NE REUNION_R34_SE REUNION_R34_SW REUNION_R34_NW REUNION_R50_NE REUNION_R50_SE REUNION_R50_SW REUNION_R50_NW REUNION_R64_NE REUNION_R64_SE REUNION_R64_SW REUNION_R64_NW BOM_LAT BOM_LON BOM_TYPE BOM_WIND BOM_PRES BOM_TNUM BOM_CI BOM_RMW BOM_R34_NE BOM_R34_SE BOM_R34_SW BOM_R34_NW BOM_R50_NE BOM_R50_SE BOM_R50_SW BOM_R50_NW BOM_R64_NE BOM_R64_SE BOM_R64_SW BOM_R64_NW BOM_ROCI BOM_POCI BOM_EYE BOM_POS_METHOD BOM_PRES_METHOD NADI_LAT NADI_LON NADI_CAT NADI_WIND NADI_PRES WELLINGTON_LAT WELLINGTON_LON WELLINGTON_WIND WELLINGTON_PRES DS824_LAT DS824_LON DS824_STAGE DS824_WIND DS824_PRES TD9636_LAT TD9636_LON TD9636_STAGE TD9636_WIND TD9636_PRES TD9635_LAT TD9635_LON TD9635_WIND TD9635_PRES TD9635_ROCI NEUMANN_LAT NEUMANN_LON NEUMANN_CLASS NEUMANN_WIND NEUMANN_PRES MLC_LAT MLC_LON MLC_CLASS MLC_WIND MLC_PRES USA_GUST BOM_GUST BOM_GUST_PER REUNION_GUST REUNION_GUST_PER USA_SEAHGT USA_SEARAD_NE USA_SEARAD_SE USA_SEARAD_SW USA_SEARAD_NW STORM_SPEED STORM_DIR
1923185N23086 1923 39 NI BB NOT_NAMED 1923-07-04 00:00:00 TS 23.3000 85.8000 main 0 0 _________O____ -1 23.3000 85.8000 TC 30 1 307
1923185N23086 1923 39 NI BB NOT_NAMED 1923-07-04 03:00:00 TS 23.3333 85.7667 main 0 0 _________PO___ -1 23.3500 85.7500 TC 30 23.3000 85.8000 1 1 319
1923185N23086 1923 39 NI BB NOT_NAMED 1923-07-04 06:00:00 TS 23.3838 85.7101 main 0 0 _________OP___ -1 23.4000 85.7000 TC 30 23.3596 85.7253 1 1 313
1923185N23086 1923 39 NI BB NOT_NAMED 1923-07-04 09:00:00 TS 23.4351 85.6545 main 0 0 _________PP___ -1 23.4500 85.6500 TC 30 23.4153 85.6604 1 1 316
1923185N23086 1923 39 NI BB NOT_NAMED 1923-07-04 12:00:00 TS 23.4817 85.6077 main 0 0 _________OP___ -1 23.5000 85.6000 TC 30 23.4634 85.6153 1 1 323
1923185N23086 1923 39 NI BB NOT_NAMED 1923-07-04 15:00:00 TS 23.5250 85.5750 main 0 0 _________PO___ -1 23.5500 85.5500 TC 30 23.5000 85.6000 1 1 336
1923185N23086 1923 39 NI BB NOT_NAMED 1923-07-04 18:00:00 TS 23.5626 85.5572 main 0 0 _________OP___ -1 23.6000 85.5000 TC 30 23.5251 85.6144 1 1 0
1923185N23086 1923 39 NI BB NOT_NAMED 1923-07-04 21:00:00 TS 23.5832 85.5606 main 0 0 _________PP___ -1 23.6123 85.5022 TC 30 23.5541 85.6190 1 1 324
1923185N23086 1923 39 NI BB NOT_NAMED 1923-07-05 00:00:00 TS 23.6530 85.4820 main 0 0 _________OP___ -1 23.7000 85.4000 TC 30 23.6061 85.5641 1 4 311
1923185N23086 1923 39 NI BB NOT_NAMED 1923-07-05 03:00:00 TS 23.8463 85.2340 main 0 0 _________PO___ -1 23.9925 85.0680 TC 30 23.7000 85.4000 1 7 307
1923185N23086 1923 39 NI BB NOT_NAMED 1923-07-05 06:00:00 TS 24.0969 84.8393 main 0 0 _________OP___ -1 24.3000 84.6000 TC 30 23.8938 85.0787 1 9 299
1923185N23086 1923 39 NI BB NOT_NAMED 1923-07-05 09:00:00 TS 24.2839 84.3835 main 0 0 _________PP___ -1 24.4449 84.1223 TC 30 24.1230 84.6447 1 9 290
1923185N23086 1923 39 NI BB NOT_NAMED 1923-07-05 12:00:00 TS 24.4203 83.8691 main 0 0 _________OP___ -1 24.5000 83.6000 TC 30 24.3406 84.1382 1 10 283
1923185N23086 1923 39 NI BB NOT_NAMED 1923-07-05 15:00:00 TS 24.5112 83.3250 main 0 0 _________PO___ -1 24.5225 83.0499 TC 30 24.5000 83.6000 1 10 276
1923185N23086 1923 39 NI BB NOT_NAMED 1923-07-05 18:00:00 TS 24.5199 82.7896 main 0 0 _________OP___ -1 24.5000 82.5000 TC 30 24.5399 83.0792 1 10 269
1923185N23086 1923 39 NI BB NOT_NAMED 1923-07-05 21:00:00 TS 24.4876 82.2592 main 0 0 _________PP___ -1 24.4574 81.9774 TC 30 24.5178 82.5410 1 9 265
1923185N23086 1923 39 NI BB NOT_NAMED 1923-07-06 00:00:00 TS 24.4309 81.7537 main 0 0 _________OP___ -1 24.4000 81.5000 TC 30 24.4617 82.0075 1 9 262
1923185N23086 1923 39 NI BB NOT_NAMED 1923-07-06 03:00:00 TS 24.3711 81.2962 main 0 0 _________PO___ -1 24.3422 81.0925 TC 30 24.4000 81.5000 1 8 263
1923185N23086 1923 39 NI BB NOT_NAMED 1923-07-06 06:00:00 TS 24.3291 80.8669 main 0 0 _________OP___ -1 24.3000 80.7000 TC 30 24.3582 81.0338 1 8 265
1923185N23086 1923 39 NI BB NOT_NAMED 1923-07-06 09:00:00 TS 24.3059 80.4198 main 0 0 _________PP___ -1 24.2926 80.2426 TC 30 24.3193 80.5971 1 8 268
1923185N23086 1923 39 NI BB NOT_NAMED 1923-07-06 12:00:00 TS 24.2979 79.9934 main 0 0 _________OP___ -1 24.3000 79.8000 TC 30 24.2958 80.1869 1 7 269
1923185N23086 1923 39 NI BB NOT_NAMED 1923-07-06 15:00:00 TS 24.2887 79.6174 main 0 0 _________PO___ -1 24.2773 79.4348 TC 30 24.3000 79.8000 1 7 271
1923185N23086 1923 39 NI BB NOT_NAMED 1923-07-06 18:00:00 TS 24.3067 79.2600 main 0 0 _________OP___ -1 24.3000 79.1000 TC 30 24.3134 79.4201 1 7 279
1923185N23086 1923 39 NI BB NOT_NAMED 1923-07-06 21:00:00 TS 24.3860 78.9023 main 0 0 _________PP___ -1 24.4125 78.7425 TC 30 24.3596 79.0620 1 7 289
1923185N23086 1923 39 NI BB NOT_NAMED 1923-07-07 00:00:00 TS 24.5255 78.5615 main 0 0 _________OP___ -1 24.6000 78.4000 TC 30 24.4510 78.7230 1 7 299
1923185N23086 1923 39 NI BB NOT_NAMED 1923-07-07 03:00:00 TS 24.7137 78.2462 main 0 0 _________PO___ -1 24.8274 78.0924 TC 30 24.6000 78.4000 1 7 308
1923185N23086 1923 39 NI AS NOT_NAMED 1923-07-07 06:00:00 TS 24.9606 77.9430 main 0 0 _________OP___ -1 25.1000 77.8000 TC 30 24.8212 78.0859 1 8 314
1923185N23086 1923 39 NI AS NOT_NAMED 1923-07-07 09:00:00 TS 25.2485 77.6426 main 0 0 _________PP___ -1 25.3999 77.5000 TC 30 25.0971 77.7853 1 8 317
1923185N23086 1923 39 NI AS NOT_NAMED 1923-07-07 12:00:00 TS 25.5497 77.3460 main 0 0 _________OP___ -1 25.7000 77.2000 TC 30 25.3994 77.4920 1 8 317
1923185N23086 1923 39 NI AS NOT_NAMED 1923-07-07 15:00:00 TS 25.8287 77.0499 main 0 0 _________PO___ -1 25.9574 76.8998 TC 30 25.7000 77.2000 1 7 316
1923185N23086 1923 39 NI AS NOT_NAMED 1923-07-07 18:00:00 TS 26.0723 76.7740 main 0 0 _________OP___ -1 26.2000 76.6000 TC 30 25.9766 76.9046 1 7 314
1923185N23086 1923 39 NI AS NOT_NAMED 1923-07-07 21:00:00 TS 26.3174 76.4834 main 0 0 _________PP___ -1 26.4476 76.3003 TC 30 26.2306 76.6055 1 7 313
1923185N23086 1923 39 NI AS NOT_NAMED 1923-07-08 00:00:00 TS 26.5462 76.2025 main 0 0 _________OP___ -1 26.7000 76.0000 TC 30 26.4693 76.3037 1 6 311
1923185N23086 1923 39 NI AS NOT_NAMED 1923-07-08 03:00:00 NR 26.7000 76.0000 main 0 __________O___ -1 TC 26.7000 76.0000 1 5 310

About IBTrACS Database

This database is a web-friendly format of International Best Track Archive for Climate Stewardship (IBTrACS), a global best track data archive curated by NOAA dating back to 1842.

Updated: 2021-12-01